San Marcos, CA (92078)

10:02 PM PDT on May 28, 2015 (GMT -0700)
MesoWest | | Change Station
CLOSE
Current Station
Personal Weather Station
Location: San Marcos, CA
Elevation: 530 ft
Nearby Weather Stations

Elev 530 ft 33.13 °N, 117.19 °W | Updated 32 minutes ago

Partly Cloudy
Partly Cloudy
60 °F
Feels Like 60 °F
N
2
Wind Variable Wind from WSW
Gusts 3.0 mph

Today
High -- | Low -- °F
--% Chance of Precip.
Yesterday
High -- | Low -- °F
Precip. -- in
5:42 AM 7:50 PM
Waxing Gibbous, 81% visible
Pressure 29.96 in
Visibility 10.0 miles
Clouds Overcast 900 ft
Dew Point 56 °F
Humidity 86%
Rainfall in
Snow Depth Not available.
UV 0 out of 12
Pollen 5.10 out of 12
Air Quality Not available.
Flu Activity Sporadic
METAR KCRQ 290453Z AUTO 00000KT 10SM OVC009 16/13 A2996 RMK AO2 SLP144 T01610133

More Conditions Fewer Conditions

Pressure 29.96 in
Visibility 10.0 miles
Clouds Overcast 900 ft
Dew Point 56 °F
Humidity 86%
Rainfall in
Snow Depth Not available.
UV 0 out of 12
Pollen 5.10 out of 12
Air Quality Not available.
Flu Activity Sporadic
METAR KCRQ 290453Z AUTO 00000KT 10SM OVC009 16/13 A2996 RMK AO2 SLP144 T01610133

More Conditions Fewer Conditions

10-Day Weather Forecast

Almanac

Astronomy

May. 28, 2015 Rise Set
Actual Time
Civil Twilight
Nautical Twilight
Astronomical Twilight
Moon
Length of Visible Light
Length of Day
Tomorrow will be .
, % of the Moon is Illuminated

Today's Extremes

State Highs State Lows

Community

WunderPhotos

Upload Photos

1,825,211 photos uploaded!

WunderBlogs® & News

Nearby

Air Quality

  Air Quality AQ Index Pollutant
Not available.

Snow Depth

Station Depth Elevation

Earthquake Activity

City Distance Mag. Time & Date
Minimum magnitude displayed is 2.5.

Coastal Water Temperatures

Place Temperature

Stations

Nearby Weather Stations

Station Location Temp. Windchill Dew Point Humidity Wind Precip. Elev Updated Type